If you wish to contribute or participate in the discussions about articles you are invited to join SKYbrary as a registered user

 Actions

Brussels South Charleroi Airport

From SKYbrary Wiki

EBCI
Airport
ICAO: EBCI
Summary
Name Brussels South Charleroi Airport
Region Europe
Territory Belgium BE.gif
Location Charleroi
Serving
Coordinates 50° 27' 45.70" N, 4° 27' 42.25" E
Runways
Designator Length Width Surface ROPS
7/25 2550 m8,366.142 ft
45 m147.638 ft
ASP yes/yes


METAR
Observation EBCI 201120Z 27008KT 220V320 9999 SCT032 19/09 Q1023 NOSIG
Station Charleroi / Gosselies
Date/Time 20 August 2019 11:20:00
Wind direction 270°
Wind speed 08 kts
Lowest cloud amount scattered clouds
Temperature 19°C
Dew point 9°C
Humidity 52%
QNH 1023 hPa
Weather condition n/a

Charleroi Brussels South Airport

ICAO: EBCI IATA: CRL

Description

Charleroi airport is an international airport located in Gosselies, 46 km24.838 nm
46,000 m
150,918.635 ft
south of Brussels.

Climatology

Temperate Marine climate/Oceanic climate (Köppen climate classification Cfb). Moderately cool summer and comparatively warm winter with a temperature range of only 14°C57.2 °F
287.15 K
516.87 °R
. Prevailing south-westerly winds from the Atlantic Ocean.

Maps

Terrain

Loading map...

Airport Layout

Loading map...


Accidents & Serious Incidents at or in vicinity of EBCI

None on SKYbrary